Time;durP1;ratioP1;P1;durP2;ratioP2;P2;SDS_P1;SDS_P2;PMS_P1;PMS_P2;Temp;Humidity;BMP_temperature;BMP_pressure;BME280_temperature;BME280_humidity;BME280_pressure;Samples;Min_cycle;Max_cycle;Signal;HPM_P1;HPM_P2
2022/12/18 00:00:17;;;;;;;45.80;24.33;;;-1.80;99.90;;;;;;5069351;28;20309;-31
2022/12/18 00:02:49;;;;;;;47.87;26.23;;;-1.80;99.90;;;;;;5066611;28;20643;-31
2022/12/18 00:05:16;;;;;;;44.93;25.33;;;-1.80;99.90;;;;;;5065982;28;20307;-32
2022/12/18 00:07:44;;;;;;;49.50;25.63;;;-1.80;99.90;;;;;;5063507;28;20210;-32
2022/12/18 00:10:13;;;;;;;45.03;26.33;;;-1.80;99.90;;;;;;5072220;28;20647;-31
2022/12/18 00:12:41;;;;;;;42.17;24.97;;;-1.80;99.90;;;;;;5054572;28;20291;-32
2022/12/18 00:15:08;;;;;;;46.57;25.90;;;-1.80;99.90;;;;;;5047855;28;20227;-32
2022/12/18 00:17:36;;;;;;;45.10;25.30;;;-1.80;99.90;;;;;;5081253;28;20723;-32
2022/12/18 00:20:06;;;;;;;47.10;24.43;;;-1.90;99.90;;;;;;5066543;28;20242;-32
2022/12/18 00:22:33;;;;;;;45.03;24.83;;;-1.80;99.90;;;;;;5062552;28;20298;-32
2022/12/18 00:25:00;;;;;;;45.33;23.80;;;-1.90;99.90;;;;;;5066456;28;20817;-32
2022/12/18 00:27:27;;;;;;;47.90;26.10;;;-1.90;99.90;;;;;;5059699;28;20195;-32
2022/12/18 00:29:57;;;;;;;46.40;25.60;;;-1.90;99.90;;;;;;5047115;28;20303;-32
2022/12/18 00:32:24;;;;;;;46.27;26.33;;;-2.00;99.90;;;;;;5065379;28;20635;-32
2022/12/18 00:34:53;;;;;;;43.77;25.03;;;-2.00;99.90;;;;;;5057019;28;20203;-32
2022/12/18 00:37:23;;;;;;;46.37;24.63;;;-2.00;99.90;;;;;;5064661;28;20199;-32
2022/12/18 00:39:50;;;;;;;47.00;24.63;;;-2.00;99.90;;;;;;5067080;28;20215;-31
2022/12/18 00:45:03;;;;;;;40.77;23.60;;;-2.00;99.90;;;;;;5063353;28;20199;-31
2022/12/18 00:47:38;;;;;;;45.93;25.27;;;-2.10;99.90;;;;;;5073926;28;20253;-32
2022/12/18 00:50:08;;;;;;;43.20;24.53;;;-2.10;99.90;;;;;;5055681;28;20449;-31
2022/12/18 00:52:38;;;;;;;42.43;23.50;;;-2.10;99.90;;;;;;5054058;28;20243;-32
2022/12/18 00:55:06;;;;;;;40.77;23.60;;;-2.20;99.90;;;;;;5059755;28;20207;-32
2022/12/18 00:57:36;;;;;;;44.33;22.80;;;-2.20;99.90;;;;;;5056260;28;20327;-32
2022/12/18 01:00:06;;;;;;;41.07;24.53;;;-2.20;99.90;;;;;;5057651;28;20261;-32
2022/12/18 01:02:35;;;;;;;41.67;24.47;;;-2.20;99.90;;;;;;5050495;28;20215;-31
2022/12/18 01:05:06;;;;;;;42.53;24.83;;;-2.20;99.90;;;;;;5056839;28;20788;-32
2022/12/18 01:07:35;;;;;;;44.70;24.90;;;-2.20;99.90;;;;;;5066280;28;20327;-32
2022/12/18 01:10:04;;;;;;;41.13;23.33;;;-2.20;99.90;;;;;;5066925;28;20215;-30
2022/12/18 01:12:31;;;;;;;40.23;22.67;;;-2.20;99.90;;;;;;5065287;28;20718;-30
2022/12/18 01:14:59;;;;;;;40.93;22.43;;;-2.20;99.90;;;;;;5064732;28;20413;-30
2022/12/18 01:17:26;;;;;;;46.27;23.63;;;-2.20;99.90;;;;;;5066380;28;20596;-30
2022/12/18 01:19:55;;;;;;;42.47;23.87;;;-2.20;99.90;;;;;;5066379;28;20207;-30
2022/12/18 01:22:23;;;;;;;44.17;23.43;;;-2.20;99.90;;;;;;5050520;28;20212;-30
2022/12/18 01:24:50;;;;;;;41.83;23.60;;;-2.20;99.90;;;;;;5065056;28;20517;-30
2022/12/18 01:27:17;;;;;;;40.40;23.93;;;-2.20;99.90;;;;;;5061153;28;20200;-30
2022/12/18 01:29:47;;;;;;;45.07;23.70;;;-2.20;99.90;;;;;;5051268;28;20204;-30
2022/12/18 01:32:16;;;;;;;44.40;22.73;;;-2.30;99.90;;;;;;5062105;28;20247;-30
2022/12/18 01:34:46;;;;;;;45.40;23.77;;;-2.30;99.90;;;;;;5063656;28;20210;-30
2022/12/18 01:37:16;;;;;;;39.53;22.27;;;-2.30;99.90;;;;;;5067045;28;20237;-30
2022/12/18 01:39:45;;;;;;;40.77;22.70;;;-2.30;99.90;;;;;;5058444;28;20768;-30
2022/12/18 01:42:17;;;;;;;45.87;23.13;;;-2.40;99.90;;;;;;5061765;28;20265;-30
2022/12/18 01:45:00;;;;;;;43.10;22.57;;;-2.40;99.90;;;;;;5073813;28;20232;-31
2022/12/18 01:47:47;;;;;;;42.27;22.70;;;-2.40;99.90;;;;;;5070196;28;20199;-30
2022/12/18 01:50:15;;;;;;;40.57;22.27;;;-2.40;99.90;;;;;;5057984;28;20729;-30
2022/12/18 01:52:46;;;;;;;41.67;23.60;;;-2.40;99.90;;;;;;5057620;28;20238;-30
2022/12/18 01:55:16;;;;;;;46.90;24.37;;;-2.50;99.90;;;;;;5058957;28;20730;-30
2022/12/18 01:57:43;;;;;;;40.90;23.47;;;-2.50;99.90;;;;;;5045273;28;20251;-30
2022/12/18 02:00:16;;;;;;;40.43;22.67;;;-2.50;99.90;;;;;;5053455;28;20208;-30
2022/12/18 02:02:46;;;;;;;38.50;22.33;;;-2.50;99.90;;;;;;5049079;28;20204;-30
2022/12/18 02:05:21;;;;;;;42.90;24.17;;;-2.50;99.90;;;;;;5057738;28;20211;-31
2022/12/18 02:07:53;;;;;;;45.70;23.20;;;-2.50;99.90;;;;;;5052942;28;20552;-30
2022/12/18 02:10:31;;;;;;;41.17;23.33;;;-2.60;99.90;;;;;;5057359;28;20280;-30
2022/12/18 02:13:01;;;;;;;40.03;22.20;;;-2.50;99.90;;;;;;5065471;28;20234;-30
2022/12/18 02:15:48;;;;;;;41.73;23.87;;;-2.60;99.90;;;;;;5069814;28;20199;-30
2022/12/18 02:18:40;;;;;;;39.73;23.07;;;-2.60;99.90;;;;;;5066444;28;20303;-30
2022/12/18 02:21:32;;;;;;;39.77;22.80;;;-2.60;99.90;;;;;;5049885;28;20216;-30
2022/12/18 02:24:14;;;;;;;42.30;22.97;;;-2.60;99.90;;;;;;5050532;28;20215;-30
2022/12/18 02:26:55;;;;;;;40.60;23.53;;;-2.70;99.90;;;;;;5064894;28;20231;-30
2022/12/18 02:29:30;;;;;;;41.30;22.60;;;-2.70;99.90;;;;;;5078175;28;20206;-30
2022/12/18 02:32:02;;;;;;;41.80;22.83;;;-2.70;99.90;;;;;;5044810;28;20744;-30
2022/12/18 02:34:34;;;;;;;42.23;22.13;;;-2.70;99.90;;;;;;5062484;28;20314;-30
2022/12/18 02:37:06;;;;;;;37.07;21.97;;;-2.80;99.90;;;;;;5065838;28;20246;-30
2022/12/18 02:39:38;;;;;;;40.67;22.30;;;-2.80;99.90;;;;;;5063355;28;20232;-30
2022/12/18 02:42:08;;;;;;;39.40;21.67;;;-2.80;99.90;;;;;;5052460;28;20266;-30
2022/12/18 02:44:46;;;;;;;37.23;21.13;;;-2.90;99.90;;;;;;5059036;28;20638;-30
2022/12/18 02:47:19;;;;;;;43.57;23.00;;;-2.90;99.90;;;;;;5046351;28;20644;-30
2022/12/18 02:49:58;;;;;;;46.10;23.03;;;-2.90;99.90;;;;;;5048134;28;20258;-30
2022/12/18 02:52:30;;;;;;;43.27;24.13;;;-3.00;99.90;;;;;;5047944;28;20738;-30
2022/12/18 02:55:15;;;;;;;39.30;20.83;;;-3.00;99.90;;;;;;5056645;28;20261;-30
2022/12/18 02:58:00;;;;;;;38.03;21.27;;;-3.00;99.90;;;;;;5063220;28;20207;-30
2022/12/18 03:00:41;;;;;;;41.27;23.03;;;-3.00;99.90;;;;;;5059935;28;20210;-30
2022/12/18 03:03:27;;;;;;;41.70;21.67;;;-3.00;99.90;;;;;;5048484;28;20753;-30
2022/12/18 03:06:01;;;;;;;40.93;22.97;;;-3.00;99.90;;;;;;5061591;28;20577;-30
2022/12/18 03:08:34;;;;;;;34.43;21.77;;;-3.10;99.90;;;;;;5064215;28;20213;-30
2022/12/18 03:11:10;;;;;;;42.27;22.93;;;-3.10;99.90;;;;;;5048943;28;20231;-30
2022/12/18 03:13:49;;;;;;;46.00;23.03;;;-3.10;99.90;;;;;;5049905;28;20204;-30
2022/12/18 03:16:30;;;;;;;40.37;21.77;;;-3.10;99.90;;;;;;5054165;28;20250;-30
2022/12/18 03:19:25;;;;;;;38.97;21.00;;;-3.10;99.90;;;;;;5065314;28;20293;-30
2022/12/18 03:21:57;;;;;;;41.30;21.93;;;-3.10;99.90;;;;;;5058258;28;20313;-30
2022/12/18 03:24:27;;;;;;;37.77;21.37;;;-3.20;99.90;;;;;;5056400;28;20286;-30
2022/12/18 03:27:02;;;;;;;45.47;22.83;;;-3.20;99.90;;;;;;5065535;28;20686;-31
2022/12/18 03:29:54;;;;;;;38.07;22.00;;;-3.20;99.90;;;;;;5068766;28;20707;-30
2022/12/18 03:32:26;;;;;;;42.70;22.63;;;-3.20;99.90;;;;;;5046078;28;20655;-30
2022/12/18 03:34:59;;;;;;;37.00;20.53;;;-3.20;99.90;;;;;;5057495;28;20581;-30
2022/12/18 03:37:28;;;;;;;37.80;21.70;;;-3.20;99.90;;;;;;5059363;28;20212;-30
2022/12/18 03:39:56;;;;;;;39.83;20.47;;;-3.20;99.90;;;;;;5051271;28;20254;-30
2022/12/18 03:42:31;;;;;;;37.63;20.47;;;-3.20;99.90;;;;;;5065374;28;20280;-30
2022/12/18 03:45:20;;;;;;;38.20;20.70;;;-3.20;99.90;;;;;;5056055;28;20448;-30
2022/12/18 03:48:03;;;;;;;31.83;19.67;;;-3.20;99.90;;;;;;5045503;28;20196;-30
2022/12/18 03:50:42;;;;;;;37.67;21.17;;;-3.20;99.90;;;;;;5053813;28;20234;-30
2022/12/18 03:53:33;;;;;;;36.03;19.60;;;-3.20;99.90;;;;;;5064968;28;20728;-30
2022/12/18 03:56:02;;;;;;;35.00;18.63;;;-3.20;99.90;;;;;;5058340;28;20642;-30
2022/12/18 03:58:35;;;;;;;32.20;17.47;;;-3.20;99.90;;;;;;5068790;28;20735;-30
2022/12/18 04:01:08;;;;;;;33.13;18.63;;;-3.20;99.90;;;;;;5059945;28;20236;-30
2022/12/18 04:03:38;;;;;;;36.97;18.23;;;-3.20;99.90;;;;;;5064765;28;20205;-30
2022/12/18 04:06:08;;;;;;;32.67;17.47;;;-3.20;99.90;;;;;;5047388;28;20250;-30
2022/12/18 04:08:35;;;;;;;34.17;17.10;;;-3.20;99.90;;;;;;5059061;28;20589;-30
2022/12/18 04:11:03;;;;;;;31.93;18.47;;;-3.20;99.90;;;;;;5041737;28;20255;-30
2022/12/18 04:13:42;;;;;;;32.43;17.57;;;-3.20;99.90;;;;;;5064836;28;20203;-30
2022/12/18 04:16:09;;;;;;;34.57;17.67;;;-3.20;99.90;;;;;;5072710;28;20673;-30
2022/12/18 04:18:37;;;;;;;32.83;18.33;;;-3.10;99.90;;;;;;5061760;28;20270;-30
2022/12/18 04:21:09;;;;;;;34.07;18.50;;;-3.20;99.90;;;;;;5058619;28;21688;-30
2022/12/18 04:23:38;;;;;;;31.47;17.57;;;-3.10;99.90;;;;;;5051020;28;20208;-30
2022/12/18 04:26:08;;;;;;;31.50;18.27;;;-3.10;99.90;;;;;;5050422;28;20249;-30
2022/12/18 04:28:35;;;;;;;34.20;18.03;;;-3.10;99.90;;;;;;5066935;28;20223;-30
2022/12/18 04:31:05;;;;;;;33.33;18.63;;;-3.10;99.90;;;;;;5053737;28;20603;-31
2022/12/18 04:33:34;;;;;;;33.17;18.60;;;-3.20;99.90;;;;;;5049821;28;20208;-30
2022/12/18 04:36:01;;;;;;;31.73;18.00;;;-3.20;99.90;;;;;;5048970;28;20219;-30
2022/12/18 04:38:28;;;;;;;32.37;18.43;;;-3.20;99.90;;;;;;5059316;28;20294;-30
2022/12/18 04:40:58;;;;;;;32.40;17.23;;;-3.30;99.90;;;;;;5066336;28;20576;-30
2022/12/18 04:43:32;;;;;;;29.93;16.67;;;-3.30;99.90;;;;;;5081074;28;20210;-30
2022/12/18 04:46:09;;;;;;;34.33;17.97;;;-3.30;99.90;;;;;;5071604;28;20199;-30
2022/12/18 04:48:41;;;;;;;33.43;17.93;;;-3.40;99.90;;;;;;5065786;28;20237;-30
2022/12/18 04:51:08;;;;;;;37.50;18.83;;;-3.40;99.90;;;;;;5068329;28;20275;-30
2022/12/18 04:53:35;;;;;;;35.20;19.20;;;-3.40;99.90;;;;;;5066578;28;20230;-30
2022/12/18 04:56:09;;;;;;;32.20;17.83;;;-3.40;99.90;;;;;;5063489;28;20209;-30
2022/12/18 04:58:40;;;;;;;30.87;17.80;;;-3.40;99.90;;;;;;5065652;28;20253;-30
2022/12/18 05:01:12;;;;;;;31.33;18.57;;;-3.40;99.90;;;;;;5062440;28;20215;-30
2022/12/18 05:03:43;;;;;;;34.83;18.87;;;-3.40;99.90;;;;;;5066019;28;20211;-30
2022/12/18 05:06:14;;;;;;;34.47;18.87;;;-3.40;99.90;;;;;;5067567;28;20286;-32
2022/12/18 05:08:41;;;;;;;33.33;18.20;;;-3.40;99.90;;;;;;5068085;28;20294;-30
2022/12/18 05:11:15;;;;;;;33.80;18.80;;;-3.40;99.90;;;;;;5061561;28;20269;-30
2022/12/18 05:13:44;;;;;;;33.37;17.93;;;-3.50;99.90;;;;;;5074343;28;20262;-30
2022/12/18 05:16:14;;;;;;;29.60;16.57;;;-3.50;99.90;;;;;;5070519;28;20231;-30
2022/12/18 05:18:42;;;;;;;35.10;19.00;;;-3.50;99.90;;;;;;5060624;28;20199;-30
2022/12/18 05:21:09;;;;;;;30.67;17.67;;;-3.50;99.90;;;;;;5059198;28;20247;-30
2022/12/18 05:23:39;;;;;;;34.43;18.70;;;-3.50;99.90;;;;;;5058656;28;20207;-30
2022/12/18 05:26:18;;;;;;;30.87;17.20;;;-3.50;99.90;;;;;;5045976;28;20196;-30
2022/12/18 05:28:45;;;;;;;29.87;16.77;;;-3.50;99.90;;;;;;5065924;28;20210;-30
2022/12/18 05:31:13;;;;;;;32.27;18.67;;;-3.50;99.90;;;;;;5053735;28;20199;-30
2022/12/18 05:33:40;;;;;;;35.30;17.90;;;-3.40;99.90;;;;;;5047469;28;20239;-30
2022/12/18 05:36:09;;;;;;;32.60;18.33;;;-3.40;99.90;;;;;;5056214;28;20200;-30
2022/12/18 05:38:38;;;;;;;33.13;17.33;;;-3.40;99.90;;;;;;5055969;28;20257;-30
2022/12/18 05:41:08;;;;;;;30.57;17.90;;;-3.40;99.90;;;;;;5053020;28;20799;-30
2022/12/18 05:43:37;;;;;;;31.77;17.80;;;-3.40;99.90;;;;;;5087034;28;20616;-30
2022/12/18 05:46:12;;;;;;;32.43;17.90;;;-3.40;99.90;;;;;;5077695;28;20696;-30
2022/12/18 05:48:39;;;;;;;31.23;17.77;;;-3.40;99.90;;;;;;5065930;28;20204;-30
2022/12/18 05:51:08;;;;;;;36.57;19.20;;;-3.50;99.90;;;;;;5056960;28;20251;-30
2022/12/18 05:53:39;;;;;;;31.80;19.03;;;-3.50;99.90;;;;;;5067219;28;20594;-30
2022/12/18 05:56:14;;;;;;;29.97;18.07;;;-3.50;99.90;;;;;;5081523;28;20221;-30
2022/12/18 05:58:44;;;;;;;33.57;18.50;;;-3.50;99.90;;;;;;5096319;28;20214;-30
2022/12/18 06:01:19;;;;;;;34.63;17.93;;;-3.50;99.90;;;;;;5049280;28;20638;-30
2022/12/18 06:03:47;;;;;;;29.87;17.17;;;-3.60;99.90;;;;;;5052959;28;20300;-30
2022/12/18 06:06:26;;;;;;;32.50;18.07;;;-3.60;99.90;;;;;;5060994;28;20241;-30
2022/12/18 06:08:58;;;;;;;32.47;18.20;;;-3.60;99.90;;;;;;5051205;28;20740;-30
2022/12/18 06:11:26;;;;;;;36.50;18.17;;;-3.60;99.90;;;;;;5052262;28;20219;-30
2022/12/18 06:13:56;;;;;;;32.27;18.30;;;-3.70;99.90;;;;;;5064819;28;20203;-30
2022/12/18 06:16:27;;;;;;;30.80;17.87;;;-3.60;99.90;;;;;;5055910;28;20299;-30
2022/12/18 06:19:03;;;;;;;31.13;17.17;;;-3.60;99.90;;;;;;5060360;28;20203;-30
2022/12/18 06:21:33;;;;;;;32.73;19.03;;;-3.70;99.90;;;;;;5052011;28;20654;-30
2022/12/18 06:24:01;;;;;;;35.23;18.67;;;-3.70;99.90;;;;;;5070558;28;20207;-31
2022/12/18 06:26:30;;;;;;;31.43;18.10;;;-3.70;99.90;;;;;;5057455;28;20293;-30
2022/12/18 06:29:00;;;;;;;35.67;18.60;;;-3.70;99.90;;;;;;5065613;28;20276;-30
2022/12/18 06:31:30;;;;;;;31.60;18.30;;;-3.70;99.90;;;;;;5057573;28;20215;-30
2022/12/18 06:33:57;;;;;;;32.30;18.13;;;-3.70;99.90;;;;;;5065627;28;20211;-30
2022/12/18 06:36:24;;;;;;;31.77;17.53;;;-3.70;99.90;;;;;;5064665;28;20724;-31
2022/12/18 06:38:52;;;;;;;34.30;17.53;;;-3.70;99.90;;;;;;5065266;28;20208;-30
2022/12/18 06:41:21;;;;;;;34.20;18.00;;;-3.70;99.90;;;;;;5067100;28;20568;-30
2022/12/18 06:43:50;;;;;;;32.47;18.33;;;-3.60;99.90;;;;;;5053927;28;20218;-30
2022/12/18 06:46:24;;;;;;;38.60;19.30;;;-3.60;99.90;;;;;;5044870;28;20219;-30
2022/12/18 06:48:53;;;;;;;35.90;18.73;;;-3.60;99.90;;;;;;5053485;28;20207;-30
2022/12/18 06:51:22;;;;;;;35.93;18.33;;;-3.60;99.90;;;;;;5057555;28;20318;-30
2022/12/18 06:53:52;;;;;;;31.53;17.63;;;-3.60;99.90;;;;;;5047970;28;20195;-30
2022/12/18 06:56:19;;;;;;;35.03;18.03;;;-3.60;99.90;;;;;;5063517;28;20292;-30
2022/12/18 06:58:49;;;;;;;33.93;18.63;;;-3.50;99.90;;;;;;5058593;28;20197;-30
2022/12/18 07:01:18;;;;;;;30.57;16.80;;;-3.50;99.90;;;;;;5056190;28;20234;-30
2022/12/18 07:03:55;;;;;;;33.13;17.93;;;-3.50;99.90;;;;;;5064775;28;20251;-30
2022/12/18 07:06:26;;;;;;;34.87;17.97;;;-3.50;99.90;;;;;;5055391;28;20215;-30
2022/12/18 07:08:57;;;;;;;32.17;17.17;;;-3.40;99.90;;;;;;5052433;28;20200;-30
2022/12/18 07:11:24;;;;;;;34.93;16.70;;;-3.40;99.90;;;;;;5044095;28;20314;-30
2022/12/18 07:13:54;;;;;;;33.47;18.07;;;-3.40;99.90;;;;;;5048304;28;20718;-30
2022/12/18 07:16:21;;;;;;;32.17;17.13;;;-3.40;99.90;;;;;;5050781;28;20342;-30
2022/12/18 07:18:54;;;;;;;31.10;17.10;;;-3.40;99.90;;;;;;5057862;28;20215;-30
2022/12/18 07:21:23;;;;;;;34.30;17.30;;;-3.40;99.90;;;;;;5055158;28;20224;-30
2022/12/18 07:23:50;;;;;;;30.57;16.27;;;-3.40;99.90;;;;;;5064989;28;20746;-32
2022/12/18 07:26:19;;;;;;;32.23;17.17;;;-3.30;99.90;;;;;;5062543;28;20294;-30
2022/12/18 07:28:50;;;;;;;31.60;16.90;;;-3.30;99.90;;;;;;5065072;28;20282;-30
2022/12/18 07:31:20;;;;;;;35.03;16.83;;;-3.30;99.90;;;;;;5059120;28;20269;-30
2022/12/18 07:33:48;;;;;;;31.43;17.00;;;-3.30;99.90;;;;;;5058455;28;20219;-30
2022/12/18 07:36:16;;;;;;;32.10;17.07;;;-3.20;99.90;;;;;;5063882;28;20230;-30
2022/12/18 07:38:46;;;;;;;30.60;16.17;;;-3.30;99.90;;;;;;5063928;28;20989;-30
2022/12/18 07:41:16;;;;;;;29.50;16.13;;;-3.20;99.90;;;;;;5053486;28;20618;-30
2022/12/18 07:43:43;;;;;;;31.00;17.07;;;-3.20;99.90;;;;;;5058715;28;20245;-30
2022/12/18 07:46:15;;;;;;;29.00;16.37;;;-3.20;99.90;;;;;;5052978;28;20196;-30
2022/12/18 07:48:45;;;;;;;28.30;16.23;;;-3.20;99.90;;;;;;5052498;28;20315;-30
2022/12/18 07:51:18;;;;;;;31.77;17.07;;;-3.20;99.90;;;;;;5043228;28;20286;-30
2022/12/18 07:53:48;;;;;;;30.10;16.97;;;-3.20;99.90;;;;;;5076725;28;20203;-30
2022/12/18 07:56:19;;;;;;;34.00;17.70;;;-3.20;99.90;;;;;;5066297;28;20208;-30
2022/12/18 07:58:56;;;;;;;28.10;16.57;;;-3.20;99.90;;;;;;5065507;28;20300;-30
2022/12/18 08:01:26;;;;;;;32.20;17.47;;;-3.20;99.90;;;;;;5063674;28;20215;-32
2022/12/18 08:03:53;;;;;;;27.70;16.53;;;-3.20;99.90;;;;;;5072815;28;20234;-31
2022/12/18 08:06:21;;;;;;;32.57;17.20;;;-3.20;99.90;;;;;;5065649;28;20941;-31
2022/12/18 08:08:54;;;;;;;31.70;16.77;;;-3.20;99.90;;;;;;5065727;28;20574;-31
2022/12/18 08:11:30;;;;;;;31.17;16.10;;;-3.20;99.90;;;;;;5064014;28;20200;-32
2022/12/18 08:13:57;;;;;;;32.27;17.60;;;-3.20;99.90;;;;;;5065666;28;20521;-32
2022/12/18 08:16:27;;;;;;;31.50;17.17;;;-3.20;99.90;;;;;;5061028;28;20295;-32
2022/12/18 08:18:54;;;;;;;28.20;15.17;;;-3.20;99.90;;;;;;5047527;28;20224;-32
2022/12/18 08:21:28;;;;;;;29.33;15.27;;;-3.20;99.90;;;;;;5047508;28;20208;-32
2022/12/18 08:24:00;;;;;;;31.67;16.43;;;-3.20;99.90;;;;;;5072800;28;20231;-30
2022/12/18 08:26:30;;;;;;;30.20;15.10;;;-3.20;99.90;;;;;;5065273;28;20569;-30
2022/12/18 08:28:59;;;;;;;29.13;16.63;;;-3.20;99.90;;;;;;5067691;28;20199;-30
2022/12/18 08:31:29;;;;;;;29.70;15.40;;;-3.20;99.90;;;;;;5062988;28;20228;-31
2022/12/18 08:33:58;;;;;;;30.03;15.57;;;-3.10;99.90;;;;;;5066261;28;20204;-30
2022/12/18 08:36:26;;;;;;;28.77;15.63;;;-3.10;99.90;;;;;;5058007;28;20412;-31
2022/12/18 08:38:56;;;;;;;27.00;15.20;;;-3.00;99.90;;;;;;5057302;28;20303;-31
2022/12/18 08:41:26;;;;;;;25.03;14.37;;;-3.00;99.90;;;;;;5047267;28;20773;-31
2022/12/18 08:46:42;;;;;;;29.77;15.70;;;-2.90;99.90;;;;;;5052797;28;20687;-30
2022/12/18 08:49:11;;;;;;;27.43;16.13;;;-2.90;99.90;;;;;;5047199;28;20258;-30
2022/12/18 08:51:42;;;;;;;25.33;14.60;;;-2.80;99.90;;;;;;5055035;28;20200;-30
2022/12/18 08:54:17;;;;;;;25.90;14.07;;;-2.80;99.90;;;;;;5065013;28;20793;-30
2022/12/18 08:56:44;;;;;;;27.50;14.13;;;-2.70;99.90;;;;;;5065669;28;20219;-31
2022/12/18 08:59:11;;;;;;;29.67;15.17;;;-2.70;99.90;;;;;;5057853;28;20262;-30
2022/12/18 09:01:46;;;;;;;26.20;13.17;;;-2.60;99.90;;;;;;5058756;28;20207;-30
2022/12/18 09:04:16;;;;;;;25.97;12.83;;;-2.60;99.90;;;;;;5066348;28;20226;-30
2022/12/18 09:06:43;;;;;;;29.57;14.20;;;-2.50;99.90;;;;;;5060519;28;20340;-31
2022/12/18 09:09:13;;;;;;;24.70;13.60;;;-2.50;99.90;;;;;;5059684;28;20253;-31
2022/12/18 09:11:40;;;;;;;25.93;12.97;;;-2.40;99.90;;;;;;5065104;28;20677;-30
2022/12/18 09:14:09;;;;;;;24.93;13.50;;;-2.40;99.90;;;;;;5066604;28;20691;-30
2022/12/18 09:16:42;;;;;;;25.90;13.73;;;-2.30;99.90;;;;;;5066223;28;20210;-31
2022/12/18 09:19:13;;;;;;;25.97;13.00;;;-2.30;99.90;;;;;;5063798;28;20204;-31
2022/12/18 09:21:44;;;;;;;22.70;12.43;;;-2.20;99.90;;;;;;5066430;28;20211;-30
2022/12/18 09:24:19;;;;;;;25.40;13.47;;;-2.20;99.90;;;;;;5072917;28;20738;-30
2022/12/18 09:26:54;;;;;;;23.33;13.03;;;-2.10;99.90;;;;;;5066947;28;20203;-30
2022/12/18 09:29:24;;;;;;;24.07;12.47;;;-2.00;99.90;;;;;;5061176;28;20207;-30
2022/12/18 09:31:53;;;;;;;22.43;12.63;;;-2.00;99.90;;;;;;5063808;28;20234;-30
2022/12/18 09:34:21;;;;;;;23.87;13.30;;;-1.90;99.90;;;;;;5065698;28;20802;-31
2022/12/18 09:36:50;;;;;;;26.97;13.30;;;-1.90;99.90;;;;;;5062088;28;20211;-31
2022/12/18 09:39:19;;;;;;;25.80;12.77;;;-1.80;99.90;;;;;;5065584;28;20239;-30
2022/12/18 09:41:56;;;;;;;24.03;13.10;;;-1.70;99.90;;;;;;5049876;28;20568;-31
2022/12/18 09:44:34;;;;;;;18.33;11.63;;;-1.60;99.90;;;;;;5045151;28;20234;-31
2022/12/18 09:47:23;;;;;;;22.47;13.03;;;-1.60;99.90;;;;;;5054171;28;20200;-30
2022/12/18 09:49:58;;;;;;;22.20;11.73;;;-1.50;99.90;;;;;;5056756;28;20286;-30
2022/12/18 09:52:40;;;;;;;21.93;12.63;;;-1.40;99.90;;;;;;5074203;28;20289;-30
2022/12/18 09:55:19;;;;;;;20.30;12.37;;;-1.40;99.90;;;;;;5062707;28;20203;-30
2022/12/18 09:57:53;;;;;;;19.80;11.77;;;-1.30;99.90;;;;;;5053458;28;20210;-30
2022/12/18 10:00:26;;;;;;;23.67;13.77;;;-1.20;99.90;;;;;;5045638;28;20210;-31
2022/12/18 10:03:05;;;;;;;20.53;12.73;;;-1.20;99.90;;;;;;5046644;28;20866;-30
2022/12/18 10:05:38;;;;;;;20.63;12.00;;;-1.10;99.90;;;;;;5050544;28;20273;-30
2022/12/18 10:08:24;;;;;;;24.30;12.77;;;-1.10;99.90;;;;;;5060732;28;20253;-30
2022/12/18 10:11:03;;;;;;;20.00;11.87;;;-1.00;99.90;;;;;;5060740;28;20212;-30
2022/12/18 10:14:06;;;;;;;23.67;12.50;;;-0.90;99.90;;;;;;5046126;28;20403;-30
2022/12/18 10:16:53;;;;;;;20.50;12.10;;;-0.80;99.90;;;;;;5038551;28;20672;-30
2022/12/18 10:19:49;;;;;;;21.93;11.57;;;-0.70;99.90;;;;;;5032471;28;20216;-31
2022/12/18 10:22:34;;;;;;;20.43;11.87;;;-0.70;99.90;;;;;;5059198;28;20261;-30
2022/12/18 10:25:24;;;;;;;20.20;12.17;;;-0.60;99.90;;;;;;5063491;28;20219;-30
2022/12/18 10:27:58;;;;;;;20.30;11.97;;;-0.60;99.90;;;;;;5052028;28;20276;-30
2022/12/18 10:30:27;;;;;;;18.00;11.77;;;-0.50;99.90;;;;;;5045816;28;20293;-30
2022/12/18 10:33:01;;;;;;;17.30;11.40;;;-0.40;99.90;;;;;;5048675;28;20218;-30
2022/12/18 10:35:31;;;;;;;18.77;11.90;;;-0.40;99.90;;;;;;5044054;28;20220;-30
2022/12/18 10:38:05;;;;;;;21.67;13.30;;;-0.30;99.90;;;;;;5051342;28;20732;-30
2022/12/18 10:40:48;;;;;;;17.90;11.43;;;-0.30;99.90;;;;;;5045062;28;20207;-31
2022/12/18 10:43:20;;;;;;;18.33;11.70;;;-0.20;99.90;;;;;;5065418;28;20250;-30
2022/12/18 10:46:09;;;;;;;20.10;11.67;;;-0.20;99.90;;;;;;5062064;28;20195;-30
2022/12/18 10:48:47;;;;;;;19.07;12.13;;;-0.10;99.90;;;;;;5046558;28;20659;-30
2022/12/18 10:51:25;;;;;;;19.33;11.60;;;-0.10;99.90;;;;;;5056632;28;20228;-30
2022/12/18 10:54:00;;;;;;;21.33;12.63;;;0.00;99.90;;;;;;5064204;28;20207;-30
2022/12/18 10:56:30;;;;;;;19.50;11.83;;;0.00;99.90;;;;;;5060232;28;20303;-30
2022/12/18 10:59:03;;;;;;;19.27;11.63;;;0.10;99.90;;;;;;5058360;28;20273;-30
2022/12/18 11:01:51;;;;;;;16.77;11.37;;;0.10;99.90;;;;;;5056050;28;20652;-30
2022/12/18 11:04:35;;;;;;;19.50;11.80;;;0.20;99.90;;;;;;5060839;28;20212;-30
2022/12/18 11:07:05;;;;;;;22.83;13.20;;;0.30;99.90;;;;;;5058393;28;20215;-30
2022/12/18 11:09:37;;;;;;;17.30;11.30;;;0.30;99.90;;;;;;5058627;28;20216;-30
2022/12/18 11:12:19;;;;;;;20.30;12.50;;;0.40;99.90;;;;;;5053513;28;20199;-30
2022/12/18 11:14:53;;;;;;;21.70;12.67;;;0.40;99.90;;;;;;5045385;28;20641;-30
2022/12/18 11:17:35;;;;;;;20.40;12.07;;;0.50;99.90;;;;;;5050677;28;20318;-30
2022/12/18 11:20:26;;;;;;;18.43;11.93;;;0.50;99.90;;;;;;5049480;28;20307;-30
2022/12/18 11:23:02;;;;;;;18.17;12.13;;;0.60;99.90;;;;;;5044694;28;20200;-30
2022/12/18 11:25:33;;;;;;;19.03;12.23;;;0.70;99.90;;;;;;5048557;28;20203;-30
2022/12/18 11:28:22;;;;;;;19.63;12.23;;;0.70;99.90;;;;;;5044769;28;20196;-30
2022/12/18 11:30:50;;;;;;;18.17;12.13;;;0.80;99.90;;;;;;5053798;28;20851;-30
2022/12/18 11:33:21;;;;;;;18.60;11.77;;;0.90;99.90;;;;;;5064561;28;20584;-30
2022/12/18 11:35:56;;;;;;;18.73;12.00;;;0.90;99.90;;;;;;5060505;28;20204;-30
2022/12/18 11:38:36;;;;;;;20.43;12.77;;;1.00;99.90;;;;;;5058632;28;20558;-30
2022/12/18 11:44:35;;;;;;;18.23;12.10;;;1.10;99.90;;;;;;5044051;28;20223;-30
2022/12/18 11:47:21;;;;;;;19.17;12.80;;;1.10;99.90;;;;;;5056282;28;20755;-30
2022/12/18 11:49:50;;;;;;;19.77;12.90;;;1.20;99.90;;;;;;5064678;28;20308;-30
2022/12/18 11:52:23;;;;;;;20.00;12.47;;;1.20;99.90;;;;;;5057066;28;20249;-30
2022/12/18 11:55:01;;;;;;;19.97;12.90;;;1.30;99.90;;;;;;5044514;28;20208;-30
2022/12/18 11:57:55;;;;;;;21.13;13.63;;;1.30;99.90;;;;;;5045508;28;20445;-30
2022/12/18 12:00:23;;;;;;;23.63;13.23;;;1.40;99.90;;;;;;5026935;28;20227;-31
2022/12/18 12:03:09;;;;;;;20.37;13.73;;;1.40;99.90;;;;;;5043727;28;20215;-31
2022/12/18 12:06:00;;;;;;;22.47;13.10;;;1.40;99.90;;;;;;5071692;28;20192;-30
2022/12/18 12:08:27;;;;;;;20.63;13.37;;;1.50;99.90;;;;;;5064729;28;20215;-30
2022/12/18 12:10:57;;;;;;;19.30;13.80;;;1.50;99.90;;;;;;5044248;28;20286;-30
2022/12/18 12:13:46;;;;;;;21.03;13.43;;;1.50;99.90;;;;;;5050869;28;20220;-30
2022/12/18 12:16:32;;;;;;;19.93;12.97;;;1.60;99.90;;;;;;5043786;28;20238;-30
2022/12/18 12:19:08;;;;;;;19.83;13.13;;;1.60;99.90;;;;;;5051936;28;20206;-30
2022/12/18 12:21:44;;;;;;;20.00;13.73;;;1.70;99.90;;;;;;5060554;28;20218;-30
2022/12/18 12:24:44;;;;;;;20.53;13.27;;;1.70;99.90;;;;;;5063194;28;20229;-30
2022/12/18 12:27:45;;;;;;;20.87;12.90;;;1.80;99.90;;;;;;5062224;28;20312;-30
2022/12/18 12:30:50;;;;;;;25.13;13.90;;;1.80;99.90;;;;;;5055815;28;20386;-30
2022/12/18 12:34:00;;;;;;;23.50;14.50;;;1.80;99.90;;;;;;5036428;28;20299;-30
2022/12/18 12:36:52;;;;;;;22.63;13.37;;;1.90;99.90;;;;;;5059330;28;20214;-30
2022/12/18 12:39:26;;;;;;;20.97;13.53;;;1.90;99.90;;;;;;5068522;28;20211;-30
2022/12/18 12:44:49;;;;;;;22.50;14.23;;;2.00;99.90;;;;;;5078841;28;20639;-30
2022/12/18 12:47:40;;;;;;;19.77;13.43;;;2.00;99.90;;;;;;5065684;28;20717;-30
2022/12/18 12:50:17;;;;;;;21.47;14.03;;;2.10;99.90;;;;;;5056142;28;20251;-30
2022/12/18 12:52:52;;;;;;;21.57;14.57;;;2.10;99.90;;;;;;5063166;28;20293;-30
2022/12/18 12:55:23;;;;;;;21.57;14.67;;;2.20;99.90;;;;;;5057408;28;20289;-30
2022/12/18 12:58:10;;;;;;;21.87;14.47;;;2.20;99.90;;;;;;5050407;28;20719;-29
2022/12/18 13:01:10;;;;;;;23.90;15.37;;;2.20;99.90;;;;;;5049604;28;20944;-30
2022/12/18 13:04:03;;;;;;;20.60;14.83;;;2.30;99.90;;;;;;5066032;28;20230;-29
2022/12/18 13:06:39;;;;;;;24.70;15.20;;;2.30;99.90;;;;;;5048091;28;20216;-30
2022/12/18 13:09:11;;;;;;;23.43;15.30;;;2.40;99.90;;;;;;5048076;28;20259;-31
2022/12/18 13:14:35;;;;;;;25.77;15.47;;;2.50;99.90;;;;;;5050908;28;20744;-32